sensor_id;sensor_type;location;lat;lon;timestamp;P1;durP1;ratioP1;P2;durP2;ratioP2
21235;SDS011;10775;42.678;26.324;2023-03-14T00:02:15;3.08;;;1.50;;
21235;SDS011;10775;42.678;26.324;2023-03-14T00:04:41;1.58;;;1.15;;
21235;SDS011;10775;42.678;26.324;2023-03-14T00:07:07;2.70;;;1.45;;
21235;SDS011;10775;42.678;26.324;2023-03-14T00:09:32;2.75;;;1.20;;
21235;SDS011;10775;42.678;26.324;2023-03-14T00:11:58;2.72;;;1.63;;
21235;SDS011;10775;42.678;26.324;2023-03-14T00:14:23;2.72;;;1.58;;
21235;SDS011;10775;42.678;26.324;2023-03-14T00:16:49;2.60;;;1.52;;
21235;SDS011;10775;42.678;26.324;2023-03-14T00:19:14;2.20;;;1.30;;
21235;SDS011;10775;42.678;26.324;2023-03-14T00:21:40;3.15;;;1.70;;
21235;SDS011;10775;42.678;26.324;2023-03-14T00:24:05;2.45;;;1.40;;
21235;SDS011;10775;42.678;26.324;2023-03-14T00:26:31;1.85;;;1.25;;
21235;SDS011;10775;42.678;26.324;2023-03-14T00:28:57;2.17;;;1.20;;
21235;SDS011;10775;42.678;26.324;2023-03-14T00:31:22;2.33;;;1.27;;
21235;SDS011;10775;42.678;26.324;2023-03-14T00:33:48;4.63;;;1.48;;
21235;SDS011;10775;42.678;26.324;2023-03-14T00:36:16;1.98;;;1.50;;
21235;SDS011;10775;42.678;26.324;2023-03-14T00:38:42;3.50;;;1.90;;
21235;SDS011;10775;42.678;26.324;2023-03-14T00:41:10;2.40;;;1.48;;
21235;SDS011;10775;42.678;26.324;2023-03-14T00:43:38;2.67;;;1.10;;
21235;SDS011;10775;42.678;26.324;2023-03-14T00:46:04;2.10;;;1.17;;
21235;SDS011;10775;42.678;26.324;2023-03-14T00:48:29;2.50;;;1.65;;
21235;SDS011;10775;42.678;26.324;2023-03-14T00:50:55;2.25;;;1.13;;
21235;SDS011;10775;42.678;26.324;2023-03-14T00:53:21;2.70;;;1.13;;
21235;SDS011;10775;42.678;26.324;2023-03-14T00:55:47;3.55;;;1.40;;
21235;SDS011;10775;42.678;26.324;2023-03-14T00:58:13;2.10;;;1.15;;
21235;SDS011;10775;42.678;26.324;2023-03-14T01:00:41;1.85;;;1.17;;
21235;SDS011;10775;42.678;26.324;2023-03-14T01:03:07;1.63;;;1.10;;
21235;SDS011;10775;42.678;26.324;2023-03-14T01:05:33;2.35;;;1.10;;
21235;SDS011;10775;42.678;26.324;2023-03-14T01:07:59;2.17;;;1.27;;
21235;SDS011;10775;42.678;26.324;2023-03-14T01:10:24;5.20;;;1.42;;
21235;SDS011;10775;42.678;26.324;2023-03-14T01:12:50;2.20;;;1.48;;
21235;SDS011;10775;42.678;26.324;2023-03-14T01:15:15;2.67;;;1.35;;
21235;SDS011;10775;42.678;26.324;2023-03-14T01:17:41;2.88;;;1.38;;
21235;SDS011;10775;42.678;26.324;2023-03-14T01:20:07;2.67;;;1.25;;
21235;SDS011;10775;42.678;26.324;2023-03-14T01:22:35;1.60;;;1.08;;
21235;SDS011;10775;42.678;26.324;2023-03-14T01:25:03;2.30;;;1.23;;
21235;SDS011;10775;42.678;26.324;2023-03-14T01:27:29;1.40;;;1.00;;
21235;SDS011;10775;42.678;26.324;2023-03-14T01:29:55;1.55;;;0.90;;
21235;SDS011;10775;42.678;26.324;2023-03-14T01:32:20;2.38;;;1.25;;
21235;SDS011;10775;42.678;26.324;2023-03-14T01:34:46;2.42;;;1.23;;
21235;SDS011;10775;42.678;26.324;2023-03-14T01:37:11;3.13;;;1.17;;
21235;SDS011;10775;42.678;26.324;2023-03-14T01:39:37;2.63;;;1.20;;
21235;SDS011;10775;42.678;26.324;2023-03-14T01:42:03;2.28;;;1.13;;
21235;SDS011;10775;42.678;26.324;2023-03-14T01:44:45;1.70;;;1.00;;
21235;SDS011;10775;42.678;26.324;2023-03-14T01:47:15;1.58;;;1.00;;
21235;SDS011;10775;42.678;26.324;2023-03-14T01:49:41;1.90;;;1.17;;
21235;SDS011;10775;42.678;26.324;2023-03-14T01:54:44;2.45;;;1.30;;
21235;SDS011;10775;42.678;26.324;2023-03-14T01:57:22;1.70;;;1.10;;
21235;SDS011;10775;42.678;26.324;2023-03-14T01:59:54;2.30;;;1.17;;
21235;SDS011;10775;42.678;26.324;2023-03-14T02:02:26;2.03;;;1.05;;
21235;SDS011;10775;42.678;26.324;2023-03-14T02:04:53;1.70;;;1.13;;
21235;SDS011;10775;42.678;26.324;2023-03-14T02:10:13;1.55;;;1.00;;
21235;SDS011;10775;42.678;26.324;2023-03-14T02:12:40;2.65;;;1.17;;
21235;SDS011;10775;42.678;26.324;2023-03-14T02:15:06;1.73;;;1.10;;
21235;SDS011;10775;42.678;26.324;2023-03-14T02:17:32;2.45;;;1.15;;
21235;SDS011;10775;42.678;26.324;2023-03-14T02:22:43;2.33;;;1.10;;
21235;SDS011;10775;42.678;26.324;2023-03-14T02:25:26;1.60;;;1.13;;
21235;SDS011;10775;42.678;26.324;2023-03-14T02:28:09;2.50;;;1.30;;
21235;SDS011;10775;42.678;26.324;2023-03-14T02:30:36;3.30;;;1.20;;
21235;SDS011;10775;42.678;26.324;2023-03-14T02:33:03;1.70;;;1.00;;
21235;SDS011;10775;42.678;26.324;2023-03-14T02:35:33;2.15;;;1.25;;
21235;SDS011;10775;42.678;26.324;2023-03-14T02:38:17;1.95;;;1.00;;
21235;SDS011;10775;42.678;26.324;2023-03-14T02:40:45;1.88;;;1.02;;
21235;SDS011;10775;42.678;26.324;2023-03-14T02:43:11;3.80;;;1.20;;
21235;SDS011;10775;42.678;26.324;2023-03-14T02:45:41;2.28;;;1.08;;
21235;SDS011;10775;42.678;26.324;2023-03-14T02:48:12;2.80;;;1.02;;
21235;SDS011;10775;42.678;26.324;2023-03-14T02:50:40;3.00;;;1.10;;
21235;SDS011;10775;42.678;26.324;2023-03-14T02:53:06;1.88;;;0.80;;
21235;SDS011;10775;42.678;26.324;2023-03-14T02:55:31;2.00;;;1.20;;
21235;SDS011;10775;42.678;26.324;2023-03-14T02:57:57;1.38;;;0.77;;
21235;SDS011;10775;42.678;26.324;2023-03-14T03:00:22;1.60;;;0.82;;
21235;SDS011;10775;42.678;26.324;2023-03-14T03:02:48;1.33;;;0.75;;
21235;SDS011;10775;42.678;26.324;2023-03-14T03:05:14;1.90;;;1.00;;
21235;SDS011;10775;42.678;26.324;2023-03-14T03:07:39;1.85;;;1.00;;
21235;SDS011;10775;42.678;26.324;2023-03-14T03:10:05;2.20;;;1.30;;
21235;SDS011;10775;42.678;26.324;2023-03-14T03:12:31;1.80;;;0.90;;
21235;SDS011;10775;42.678;26.324;2023-03-14T03:14:56;1.08;;;0.80;;
21235;SDS011;10775;42.678;26.324;2023-03-14T03:17:22;1.67;;;0.82;;
21235;SDS011;10775;42.678;26.324;2023-03-14T03:19:47;1.42;;;0.95;;
21235;SDS011;10775;42.678;26.324;2023-03-14T03:22:13;1.30;;;0.90;;
21235;SDS011;10775;42.678;26.324;2023-03-14T03:24:38;1.65;;;0.90;;
21235;SDS011;10775;42.678;26.324;2023-03-14T03:27:04;2.67;;;1.15;;
21235;SDS011;10775;42.678;26.324;2023-03-14T03:29:29;1.33;;;0.85;;
21235;SDS011;10775;42.678;26.324;2023-03-14T03:31:55;1.42;;;0.70;;
21235;SDS011;10775;42.678;26.324;2023-03-14T03:34:21;1.42;;;1.05;;
21235;SDS011;10775;42.678;26.324;2023-03-14T03:36:46;1.70;;;0.88;;
21235;SDS011;10775;42.678;26.324;2023-03-14T03:39:11;1.88;;;0.93;;
21235;SDS011;10775;42.678;26.324;2023-03-14T03:41:37;3.50;;;1.08;;
21235;SDS011;10775;42.678;26.324;2023-03-14T03:44:02;1.55;;;0.90;;
21235;SDS011;10775;42.678;26.324;2023-03-14T03:46:28;1.80;;;0.98;;
21235;SDS011;10775;42.678;26.324;2023-03-14T03:49:02;1.52;;;0.93;;
21235;SDS011;10775;42.678;26.324;2023-03-14T03:51:28;2.03;;;1.10;;
21235;SDS011;10775;42.678;26.324;2023-03-14T03:53:53;2.47;;;1.00;;
21235;SDS011;10775;42.678;26.324;2023-03-14T03:56:19;2.40;;;1.00;;
21235;SDS011;10775;42.678;26.324;2023-03-14T03:58:44;1.83;;;1.15;;
21235;SDS011;10775;42.678;26.324;2023-03-14T04:01:10;1.60;;;1.10;;
21235;SDS011;10775;42.678;26.324;2023-03-14T04:03:38;1.83;;;1.02;;
21235;SDS011;10775;42.678;26.324;2023-03-14T04:06:08;1.83;;;0.68;;
21235;SDS011;10775;42.678;26.324;2023-03-14T04:08:36;1.08;;;0.63;;
21235;SDS011;10775;42.678;26.324;2023-03-14T04:11:02;1.52;;;0.88;;
21235;SDS011;10775;42.678;26.324;2023-03-14T04:13:28;1.60;;;0.80;;
21235;SDS011;10775;42.678;26.324;2023-03-14T04:15:54;1.88;;;1.00;;
21235;SDS011;10775;42.678;26.324;2023-03-14T04:18:20;1.50;;;0.80;;
21235;SDS011;10775;42.678;26.324;2023-03-14T04:20:50;1.20;;;0.80;;
21235;SDS011;10775;42.678;26.324;2023-03-14T04:23:16;1.30;;;0.80;;
21235;SDS011;10775;42.678;26.324;2023-03-14T04:25:42;1.08;;;0.98;;
21235;SDS011;10775;42.678;26.324;2023-03-14T04:28:07;1.58;;;1.00;;
21235;SDS011;10775;42.678;26.324;2023-03-14T04:30:33;1.90;;;1.08;;
21235;SDS011;10775;42.678;26.324;2023-03-14T04:32:58;1.38;;;0.90;;
21235;SDS011;10775;42.678;26.324;2023-03-14T04:35:24;1.63;;;0.80;;
21235;SDS011;10775;42.678;26.324;2023-03-14T04:37:50;1.15;;;0.90;;
21235;SDS011;10775;42.678;26.324;2023-03-14T04:40:16;1.63;;;0.82;;
21235;SDS011;10775;42.678;26.324;2023-03-14T04:42:42;2.30;;;1.10;;
21235;SDS011;10775;42.678;26.324;2023-03-14T04:45:08;1.98;;;1.00;;
21235;SDS011;10775;42.678;26.324;2023-03-14T04:47:34;1.73;;;0.80;;
21235;SDS011;10775;42.678;26.324;2023-03-14T04:50:00;1.52;;;0.80;;
21235;SDS011;10775;42.678;26.324;2023-03-14T04:52:25;1.75;;;0.77;;
21235;SDS011;10775;42.678;26.324;2023-03-14T04:54:51;1.95;;;1.13;;
21235;SDS011;10775;42.678;26.324;2023-03-14T04:57:17;2.03;;;0.90;;
21235;SDS011;10775;42.678;26.324;2023-03-14T04:59:42;2.15;;;1.20;;
21235;SDS011;10775;42.678;26.324;2023-03-14T05:02:08;2.58;;;1.40;;
21235;SDS011;10775;42.678;26.324;2023-03-14T05:04:33;2.33;;;1.10;;
21235;SDS011;10775;42.678;26.324;2023-03-14T05:06:59;2.05;;;1.13;;
21235;SDS011;10775;42.678;26.324;2023-03-14T05:09:25;2.65;;;1.05;;
21235;SDS011;10775;42.678;26.324;2023-03-14T05:11:50;1.52;;;1.02;;
21235;SDS011;10775;42.678;26.324;2023-03-14T05:14:16;3.92;;;1.17;;
21235;SDS011;10775;42.678;26.324;2023-03-14T05:16:42;1.58;;;1.10;;
21235;SDS011;10775;42.678;26.324;2023-03-14T05:19:07;3.17;;;1.20;;
21235;SDS011;10775;42.678;26.324;2023-03-14T05:21:33;3.05;;;1.35;;
21235;SDS011;10775;42.678;26.324;2023-03-14T05:23:58;2.30;;;1.45;;
21235;SDS011;10775;42.678;26.324;2023-03-14T05:26:24;2.25;;;1.23;;
21235;SDS011;10775;42.678;26.324;2023-03-14T05:28:49;3.60;;;1.38;;
21235;SDS011;10775;42.678;26.324;2023-03-14T05:31:15;1.75;;;1.10;;
21235;SDS011;10775;42.678;26.324;2023-03-14T05:33:40;1.35;;;1.00;;
21235;SDS011;10775;42.678;26.324;2023-03-14T05:36:06;2.97;;;1.15;;
21235;SDS011;10775;42.678;26.324;2023-03-14T05:38:32;2.03;;;0.95;;
21235;SDS011;10775;42.678;26.324;2023-03-14T05:40:57;1.40;;;1.00;;
21235;SDS011;10775;42.678;26.324;2023-03-14T05:43:23;2.40;;;1.10;;
21235;SDS011;10775;42.678;26.324;2023-03-14T05:45:48;1.88;;;1.20;;
21235;SDS011;10775;42.678;26.324;2023-03-14T05:48:14;4.50;;;2.17;;
21235;SDS011;10775;42.678;26.324;2023-03-14T05:50:39;4.55;;;1.67;;
21235;SDS011;10775;42.678;26.324;2023-03-14T05:53:05;3.53;;;1.90;;
21235;SDS011;10775;42.678;26.324;2023-03-14T05:55:30;3.42;;;1.73;;
21235;SDS011;10775;42.678;26.324;2023-03-14T05:57:55;4.78;;;1.80;;
21235;SDS011;10775;42.678;26.324;2023-03-14T06:00:21;5.70;;;2.30;;
21235;SDS011;10775;42.678;26.324;2023-03-14T06:02:47;3.78;;;2.10;;
21235;SDS011;10775;42.678;26.324;2023-03-14T06:05:13;4.60;;;2.08;;
21235;SDS011;10775;42.678;26.324;2023-03-14T06:07:38;3.42;;;1.90;;
21235;SDS011;10775;42.678;26.324;2023-03-14T06:10:04;3.05;;;1.95;;
21235;SDS011;10775;42.678;26.324;2023-03-14T06:12:31;3.30;;;1.67;;
21235;SDS011;10775;42.678;26.324;2023-03-14T06:14:56;4.57;;;2.00;;
21235;SDS011;10775;42.678;26.324;2023-03-14T06:17:21;14.30;;;6.88;;
21235;SDS011;10775;42.678;26.324;2023-03-14T06:19:47;16.38;;;8.95;;
21235;SDS011;10775;42.678;26.324;2023-03-14T06:22:13;23.63;;;10.90;;
21235;SDS011;10775;42.678;26.324;2023-03-14T06:24:38;26.00;;;11.75;;
21235;SDS011;10775;42.678;26.324;2023-03-14T06:27:04;18.58;;;9.60;;
21235;SDS011;10775;42.678;26.324;2023-03-14T06:29:29;17.48;;;8.85;;
21235;SDS011;10775;42.678;26.324;2023-03-14T06:31:55;22.60;;;8.57;;
21235;SDS011;10775;42.678;26.324;2023-03-14T06:34:21;13.98;;;7.63;;
21235;SDS011;10775;42.678;26.324;2023-03-14T06:36:46;14.00;;;6.82;;
21235;SDS011;10775;42.678;26.324;2023-03-14T06:39:12;7.68;;;4.05;;
21235;SDS011;10775;42.678;26.324;2023-03-14T06:41:37;8.02;;;3.88;;
21235;SDS011;10775;42.678;26.324;2023-03-14T06:44:03;12.27;;;5.70;;
21235;SDS011;10775;42.678;26.324;2023-03-14T06:46:29;13.75;;;5.45;;
21235;SDS011;10775;42.678;26.324;2023-03-14T06:48:54;10.68;;;5.88;;
21235;SDS011;10775;42.678;26.324;2023-03-14T06:51:20;9.82;;;5.50;;
21235;SDS011;10775;42.678;26.324;2023-03-14T06:53:45;9.52;;;5.28;;
21235;SDS011;10775;42.678;26.324;2023-03-14T06:56:11;8.68;;;5.38;;
21235;SDS011;10775;42.678;26.324;2023-03-14T06:58:36;9.35;;;5.57;;
21235;SDS011;10775;42.678;26.324;2023-03-14T07:01:02;12.27;;;5.55;;
21235;SDS011;10775;42.678;26.324;2023-03-14T07:03:28;10.20;;;4.85;;
21235;SDS011;10775;42.678;26.324;2023-03-14T07:05:54;10.90;;;5.18;;
21235;SDS011;10775;42.678;26.324;2023-03-14T07:08:19;11.15;;;5.38;;
21235;SDS011;10775;42.678;26.324;2023-03-14T07:10:45;9.52;;;5.65;;
21235;SDS011;10775;42.678;26.324;2023-03-14T07:13:10;13.70;;;5.47;;
21235;SDS011;10775;42.678;26.324;2023-03-14T07:15:36;11.43;;;5.97;;
21235;SDS011;10775;42.678;26.324;2023-03-14T07:18:01;10.05;;;6.03;;
21235;SDS011;10775;42.678;26.324;2023-03-14T07:20:27;12.20;;;6.18;;
21235;SDS011;10775;42.678;26.324;2023-03-14T07:22:53;20.02;;;8.52;;
21235;SDS011;10775;42.678;26.324;2023-03-14T07:25:19;9.43;;;5.03;;
21235;SDS011;10775;42.678;26.324;2023-03-14T07:27:45;9.73;;;5.25;;
21235;SDS011;10775;42.678;26.324;2023-03-14T07:30:13;10.00;;;5.80;;
21235;SDS011;10775;42.678;26.324;2023-03-14T07:32:39;10.15;;;4.10;;
21235;SDS011;10775;42.678;26.324;2023-03-14T07:35:04;12.43;;;4.50;;
21235;SDS011;10775;42.678;26.324;2023-03-14T07:37:30;7.15;;;4.32;;
21235;SDS011;10775;42.678;26.324;2023-03-14T07:39:56;6.30;;;4.07;;
21235;SDS011;10775;42.678;26.324;2023-03-14T07:42:21;9.38;;;3.75;;
21235;SDS011;10775;42.678;26.324;2023-03-14T07:44:47;6.93;;;3.60;;
21235;SDS011;10775;42.678;26.324;2023-03-14T07:47:12;6.68;;;3.70;;
21235;SDS011;10775;42.678;26.324;2023-03-14T07:49:37;9.25;;;4.90;;
21235;SDS011;10775;42.678;26.324;2023-03-14T07:52:03;5.95;;;3.33;;
21235;SDS011;10775;42.678;26.324;2023-03-14T07:54:28;9.18;;;3.97;;
21235;SDS011;10775;42.678;26.324;2023-03-14T07:56:54;4.78;;;2.60;;
21235;SDS011;10775;42.678;26.324;2023-03-14T07:59:19;6.38;;;3.20;;
21235;SDS011;10775;42.678;26.324;2023-03-14T08:01:45;9.40;;;3.50;;
21235;SDS011;10775;42.678;26.324;2023-03-14T08:04:11;7.10;;;3.58;;
21235;SDS011;10775;42.678;26.324;2023-03-14T08:06:36;5.90;;;3.35;;
21235;SDS011;10775;42.678;26.324;2023-03-14T08:09:02;8.25;;;3.10;;
21235;SDS011;10775;42.678;26.324;2023-03-14T08:11:29;5.93;;;2.92;;
21235;SDS011;10775;42.678;26.324;2023-03-14T08:13:54;6.93;;;3.30;;
21235;SDS011;10775;42.678;26.324;2023-03-14T08:16:20;7.43;;;3.03;;
21235;SDS011;10775;42.678;26.324;2023-03-14T08:18:46;6.63;;;3.60;;
21235;SDS011;10775;42.678;26.324;2023-03-14T08:21:12;7.30;;;3.42;;
21235;SDS011;10775;42.678;26.324;2023-03-14T08:23:38;5.32;;;2.88;;
21235;SDS011;10775;42.678;26.324;2023-03-14T08:26:03;7.43;;;3.63;;
21235;SDS011;10775;42.678;26.324;2023-03-14T08:28:29;5.00;;;3.15;;
21235;SDS011;10775;42.678;26.324;2023-03-14T08:30:58;6.85;;;3.78;;
21235;SDS011;10775;42.678;26.324;2023-03-14T08:33:26;6.47;;;3.38;;
21235;SDS011;10775;42.678;26.324;2023-03-14T08:35:53;4.70;;;2.70;;
21235;SDS011;10775;42.678;26.324;2023-03-14T08:38:19;6.03;;;2.55;;
21235;SDS011;10775;42.678;26.324;2023-03-14T08:40:45;6.13;;;2.88;;
21235;SDS011;10775;42.678;26.324;2023-03-14T08:43:10;5.60;;;2.75;;
21235;SDS011;10775;42.678;26.324;2023-03-14T08:45:36;8.77;;;3.50;;
21235;SDS011;10775;42.678;26.324;2023-03-14T08:48:01;4.28;;;2.78;;
21235;SDS011;10775;42.678;26.324;2023-03-14T08:50:28;5.88;;;2.70;;
21235;SDS011;10775;42.678;26.324;2023-03-14T08:52:53;10.82;;;4.45;;
21235;SDS011;10775;42.678;26.324;2023-03-14T08:55:19;9.65;;;2.90;;
21235;SDS011;10775;42.678;26.324;2023-03-14T08:57:45;6.72;;;2.47;;
21235;SDS011;10775;42.678;26.324;2023-03-14T09:00:10;10.57;;;3.20;;
21235;SDS011;10775;42.678;26.324;2023-03-14T09:02:40;10.32;;;4.05;;
21235;SDS011;10775;42.678;26.324;2023-03-14T09:05:06;8.77;;;2.50;;
21235;SDS011;10775;42.678;26.324;2023-03-14T09:07:33;7.32;;;3.10;;
21235;SDS011;10775;42.678;26.324;2023-03-14T09:09:58;4.75;;;2.75;;
21235;SDS011;10775;42.678;26.324;2023-03-14T09:12:24;5.07;;;2.90;;
21235;SDS011;10775;42.678;26.324;2023-03-14T09:14:49;5.05;;;2.75;;
21235;SDS011;10775;42.678;26.324;2023-03-14T09:17:14;4.65;;;2.58;;
21235;SDS011;10775;42.678;26.324;2023-03-14T09:19:40;5.30;;;2.50;;
21235;SDS011;10775;42.678;26.324;2023-03-14T09:22:05;4.53;;;2.53;;
21235;SDS011;10775;42.678;26.324;2023-03-14T09:24:31;7.30;;;2.47;;
21235;SDS011;10775;42.678;26.324;2023-03-14T09:26:56;7.43;;;2.67;;
21235;SDS011;10775;42.678;26.324;2023-03-14T09:29:22;7.68;;;3.78;;
21235;SDS011;10775;42.678;26.324;2023-03-14T09:31:48;7.70;;;4.20;;
21235;SDS011;10775;42.678;26.324;2023-03-14T09:34:13;8.95;;;3.72;;
21235;SDS011;10775;42.678;26.324;2023-03-14T09:36:38;8.10;;;3.97;;
21235;SDS011;10775;42.678;26.324;2023-03-14T09:39:04;9.60;;;3.92;;
21235;SDS011;10775;42.678;26.324;2023-03-14T09:41:34;7.25;;;3.70;;
21235;SDS011;10775;42.678;26.324;2023-03-14T09:44:05;8.98;;;3.58;;
21235;SDS011;10775;42.678;26.324;2023-03-14T09:46:38;9.85;;;3.45;;
21235;SDS011;10775;42.678;26.324;2023-03-14T09:49:09;6.72;;;2.97;;
21235;SDS011;10775;42.678;26.324;2023-03-14T09:51:55;8.35;;;3.60;;
21235;SDS011;10775;42.678;26.324;2023-03-14T09:56:57;9.32;;;3.88;;
21235;SDS011;10775;42.678;26.324;2023-03-14T09:59:22;9.80;;;3.17;;
21235;SDS011;10775;42.678;26.324;2023-03-14T10:01:48;5.68;;;2.97;;
21235;SDS011;10775;42.678;26.324;2023-03-14T10:04:15;5.38;;;2.97;;
21235;SDS011;10775;42.678;26.324;2023-03-14T10:06:46;6.95;;;3.00;;
21235;SDS011;10775;42.678;26.324;2023-03-14T10:09:15;5.30;;;2.70;;
21235;SDS011;10775;42.678;26.324;2023-03-14T10:11:51;6.63;;;3.15;;
21235;SDS011;10775;42.678;26.324;2023-03-14T10:14:28;5.13;;;3.10;;
21235;SDS011;10775;42.678;26.324;2023-03-14T10:16:55;5.38;;;2.50;;
21235;SDS011;10775;42.678;26.324;2023-03-14T10:19:37;9.60;;;3.55;;
21235;SDS011;10775;42.678;26.324;2023-03-14T10:22:15;7.75;;;3.55;;
21235;SDS011;10775;42.678;26.324;2023-03-14T10:24:45;5.78;;;2.80;;
21235;SDS011;10775;42.678;26.324;2023-03-14T10:27:20;6.28;;;3.10;;
21235;SDS011;10775;42.678;26.324;2023-03-14T10:29:55;5.05;;;2.70;;
21235;SDS011;10775;42.678;26.324;2023-03-14T10:32:23;6.55;;;3.08;;
21235;SDS011;10775;42.678;26.324;2023-03-14T10:37:47;5.47;;;3.08;;
21235;SDS011;10775;42.678;26.324;2023-03-14T10:40:20;5.88;;;3.03;;
21235;SDS011;10775;42.678;26.324;2023-03-14T10:42:53;6.05;;;2.85;;
21235;SDS011;10775;42.678;26.324;2023-03-14T10:53:33;5.00;;;2.67;;
21235;SDS011;10775;42.678;26.324;2023-03-14T10:56:05;5.10;;;2.50;;
21235;SDS011;10775;42.678;26.324;2023-03-14T10:58:32;7.05;;;3.03;;
21235;SDS011;10775;42.678;26.324;2023-03-14T11:03:46;2.88;;;1.05;;
21235;SDS011;10775;42.678;26.324;2023-03-14T11:06:19;3.33;;;2.42;;
21235;SDS011;10775;42.678;26.324;2023-03-14T11:11:54;4.82;;;2.28;;
21235;SDS011;10775;42.678;26.324;2023-03-14T11:14:38;4.90;;;2.47;;
21235;SDS011;10775;42.678;26.324;2023-03-14T11:17:15;5.72;;;2.60;;
21235;SDS011;10775;42.678;26.324;2023-03-14T11:22:59;4.97;;;2.55;;
21235;SDS011;10775;42.678;26.324;2023-03-14T11:28:38;10.80;;;4.30;;
21235;SDS011;10775;42.678;26.324;2023-03-14T11:36:21;8.15;;;3.05;;
21235;SDS011;10775;42.678;26.324;2023-03-14T11:38:52;7.60;;;3.15;;
21235;SDS011;10775;42.678;26.324;2023-03-14T11:41:40;6.20;;;2.70;;
21235;SDS011;10775;42.678;26.324;2023-03-14T11:47:06;5.68;;;2.58;;
21235;SDS011;10775;42.678;26.324;2023-03-14T11:50:24;7.10;;;2.95;;
21235;SDS011;10775;42.678;26.324;2023-03-14T11:52:58;5.93;;;2.28;;
21235;SDS011;10775;42.678;26.324;2023-03-14T11:55:34;6.68;;;3.05;;
21235;SDS011;10775;42.678;26.324;2023-03-14T11:58:03;4.38;;;2.42;;
21235;SDS011;10775;42.678;26.324;2023-03-14T12:00:37;5.70;;;2.70;;
21235;SDS011;10775;42.678;26.324;2023-03-14T12:05:50;7.03;;;2.22;;
21235;SDS011;10775;42.678;26.324;2023-03-14T12:08:29;6.30;;;2.00;;
21235;SDS011;10775;42.678;26.324;2023-03-14T12:11:30;7.85;;;2.58;;
21235;SDS011;10775;42.678;26.324;2023-03-14T12:14:15;3.95;;;2.08;;
21235;SDS011;10775;42.678;26.324;2023-03-14T12:16:45;7.60;;;3.30;;
21235;SDS011;10775;42.678;26.324;2023-03-14T12:19:13;4.00;;;2.35;;
21235;SDS011;10775;42.678;26.324;2023-03-14T12:21:55;4.88;;;2.28;;
21235;SDS011;10775;42.678;26.324;2023-03-14T12:24:34;5.38;;;2.33;;
21235;SDS011;10775;42.678;26.324;2023-03-14T12:27:03;5.65;;;2.15;;
21235;SDS011;10775;42.678;26.324;2023-03-14T12:29:30;6.50;;;2.33;;
21235;SDS011;10775;42.678;26.324;2023-03-14T12:34:33;5.68;;;2.60;;
21235;SDS011;10775;42.678;26.324;2023-03-14T12:37:10;7.45;;;1.98;;
21235;SDS011;10775;42.678;26.324;2023-03-14T12:42:58;3.95;;;2.13;;
21235;SDS011;10775;42.678;26.324;2023-03-14T12:50:38;2.78;;;1.65;;
21235;SDS011;10775;42.678;26.324;2023-03-14T12:59:43;6.68;;;2.08;;
21235;SDS011;10775;42.678;26.324;2023-03-14T13:02:20;4.50;;;1.85;;
21235;SDS011;10775;42.678;26.324;2023-03-14T13:05:14;5.35;;;1.90;;
21235;SDS011;10775;42.678;26.324;2023-03-14T13:10:30;2.90;;;1.80;;
21235;SDS011;10775;42.678;26.324;2023-03-14T13:13:21;2.30;;;1.35;;
21235;SDS011;10775;42.678;26.324;2023-03-14T13:15:57;3.17;;;1.65;;
21235;SDS011;10775;42.678;26.324;2023-03-14T13:21:06;3.22;;;1.60;;
21235;SDS011;10775;42.678;26.324;2023-03-14T13:23:34;3.55;;;1.58;;
21235;SDS011;10775;42.678;26.324;2023-03-14T13:26:02;5.63;;;1.17;;
21235;SDS011;10775;42.678;26.324;2023-03-14T13:28:29;4.35;;;1.52;;
21235;SDS011;10775;42.678;26.324;2023-03-14T13:31:01;4.45;;;1.40;;
21235;SDS011;10775;42.678;26.324;2023-03-14T13:33:32;5.28;;;1.58;;
21235;SDS011;10775;42.678;26.324;2023-03-14T13:36:10;3.22;;;1.52;;
21235;SDS011;10775;42.678;26.324;2023-03-14T13:38:39;2.92;;;1.20;;
21235;SDS011;10775;42.678;26.324;2023-03-14T13:41:07;5.00;;;1.45;;
21235;SDS011;10775;42.678;26.324;2023-03-14T13:43:39;7.95;;;5.20;;
21235;SDS011;10775;42.678;26.324;2023-03-14T13:46:07;3.13;;;1.70;;
21235;SDS011;10775;42.678;26.324;2023-03-14T13:48:50;4.72;;;1.30;;
21235;SDS011;10775;42.678;26.324;2023-03-14T13:51:20;4.65;;;1.23;;
21235;SDS011;10775;42.678;26.324;2023-03-14T13:53:50;2.35;;;1.40;;
21235;SDS011;10775;42.678;26.324;2023-03-14T13:56:18;1.83;;;1.30;;
21235;SDS011;10775;42.678;26.324;2023-03-14T13:58:48;1.95;;;1.08;;
21235;SDS011;10775;42.678;26.324;2023-03-14T14:03:52;2.30;;;1.23;;
21235;SDS011;10775;42.678;26.324;2023-03-14T14:08:56;3.60;;;1.00;;
21235;SDS011;10775;42.678;26.324;2023-03-14T14:11:44;3.47;;;1.30;;
21235;SDS011;10775;42.678;26.324;2023-03-14T14:14:18;4.25;;;1.23;;
21235;SDS011;10775;42.678;26.324;2023-03-14T14:16:45;4.50;;;1.50;;
21235;SDS011;10775;42.678;26.324;2023-03-14T14:19:13;5.18;;;1.20;;
21235;SDS011;10775;42.678;26.324;2023-03-14T14:21:40;4.00;;;1.08;;
21235;SDS011;10775;42.678;26.324;2023-03-14T14:24:07;1.80;;;0.98;;
21235;SDS011;10775;42.678;26.324;2023-03-14T14:26:40;3.65;;;2.00;;
21235;SDS011;10775;42.678;26.324;2023-03-14T14:29:19;9.00;;;5.90;;
21235;SDS011;10775;42.678;26.324;2023-03-14T14:34:45;2.40;;;0.90;;
21235;SDS011;10775;42.678;26.324;2023-03-14T14:39:47;1.73;;;1.05;;
21235;SDS011;10775;42.678;26.324;2023-03-14T14:42:15;3.45;;;1.20;;
21235;SDS011;10775;42.678;26.324;2023-03-14T14:44:42;2.72;;;1.13;;
21235;SDS011;10775;42.678;26.324;2023-03-14T14:47:12;2.28;;;1.00;;
21235;SDS011;10775;42.678;26.324;2023-03-14T14:49:40;3.25;;;1.17;;
21235;SDS011;10775;42.678;26.324;2023-03-14T14:52:10;2.55;;;1.55;;
21235;SDS011;10775;42.678;26.324;2023-03-14T14:54:42;3.17;;;0.93;;
21235;SDS011;10775;42.678;26.324;2023-03-14T14:59:44;2.15;;;1.08;;
21235;SDS011;10775;42.678;26.324;2023-03-14T15:02:23;3.33;;;0.93;;
21235;SDS011;10775;42.678;26.324;2023-03-14T15:04:50;2.42;;;1.17;;
21235;SDS011;10775;42.678;26.324;2023-03-14T15:07:16;3.28;;;1.05;;
21235;SDS011;10775;42.678;26.324;2023-03-14T15:09:42;3.88;;;1.38;;
21235;SDS011;10775;42.678;26.324;2023-03-14T15:12:07;3.28;;;1.30;;
21235;SDS011;10775;42.678;26.324;2023-03-14T15:14:33;5.60;;;1.40;;
21235;SDS011;10775;42.678;26.324;2023-03-14T15:16:58;1.98;;;1.00;;
21235;SDS011;10775;42.678;26.324;2023-03-14T15:19:24;3.80;;;1.13;;
21235;SDS011;10775;42.678;26.324;2023-03-14T15:21:51;1.75;;;1.00;;
21235;SDS011;10775;42.678;26.324;2023-03-14T15:24:18;2.58;;;1.23;;
21235;SDS011;10775;42.678;26.324;2023-03-14T15:26:43;1.90;;;0.73;;
21235;SDS011;10775;42.678;26.324;2023-03-14T15:29:10;2.28;;;0.90;;
21235;SDS011;10775;42.678;26.324;2023-03-14T15:31:37;1.73;;;0.88;;
21235;SDS011;10775;42.678;26.324;2023-03-14T15:34:03;2.78;;;0.98;;
21235;SDS011;10775;42.678;26.324;2023-03-14T15:36:30;3.70;;;1.15;;
21235;SDS011;10775;42.678;26.324;2023-03-14T15:38:58;3.28;;;0.93;;
21235;SDS011;10775;42.678;26.324;2023-03-14T15:41:25;3.72;;;0.80;;
21235;SDS011;10775;42.678;26.324;2023-03-14T15:43:51;2.28;;;1.00;;
21235;SDS011;10775;42.678;26.324;2023-03-14T15:46:17;2.63;;;1.00;;
21235;SDS011;10775;42.678;26.324;2023-03-14T15:48:46;3.88;;;1.30;;
21235;SDS011;10775;42.678;26.324;2023-03-14T15:51:13;1.58;;;0.70;;
21235;SDS011;10775;42.678;26.324;2023-03-14T15:53:38;3.10;;;1.20;;
21235;SDS011;10775;42.678;26.324;2023-03-14T15:56:04;1.77;;;1.02;;
21235;SDS011;10775;42.678;26.324;2023-03-14T15:58:30;3.20;;;1.20;;
21235;SDS011;10775;42.678;26.324;2023-03-14T16:00:59;3.75;;;1.00;;